Terminal Aerodrome Forecast
Issued by NWS

Home | Current Version | Previous Version | Text Only | Print | Product List | Glossary On
Versions: 1 2 3 4 5 6 7 8 9 10 11 12 13 14 15 16 17
000
FTUS43 KFGF 221700
TAFTVF
TAF
KTVF 221732Z 2218/2318 36003KT P6SM OVC008
     FM222100 36007KT P6SM BKN015
     FM230300 36008KT P6SM BKN012
     FM230900 03006KT 6SM BR OVC005
      AMD LTD TO CLD VIS AND WIND=

USA.gov is the U.S. government's official web portal to all federal, state and local government web resources and services.